Time;durP1;ratioP1;P1;durP2;ratioP2;P2;SDS_P1;SDS_P2;PMS_P1;PMS_P2;Temp;Humidity;BMP_temperature;BMP_pressure;BME280_temperature;BME280_humidity;BME280_pressure;Samples;Min_cycle;Max_cycle;Signal;HPM_P1;HPM_P2
2023/12/11 00:01:55;;;;;;;18.73;4.65;;;13.80;70.80;;;;;;5064187;28;20094;-49
2023/12/11 00:04:22;;;;;;;16.85;3.70;;;13.80;70.80;;;;;;5052388;28;20052;-47
2023/12/11 00:06:54;;;;;;;15.73;4.53;;;13.80;70.90;;;;;;5057790;28;20032;-47
2023/12/11 00:09:21;;;;;;;14.23;4.43;;;13.80;71.00;;;;;;5047317;28;20119;-47
2023/12/11 00:11:48;;;;;;;18.40;5.13;;;13.80;71.00;;;;;;5061135;28;20048;-47
2023/12/11 00:14:15;;;;;;;18.08;4.60;;;13.80;71.00;;;;;;5055617;28;20053;-50
2023/12/11 00:16:43;;;;;;;14.52;4.55;;;13.80;71.00;;;;;;5069247;28;20045;-49
2023/12/11 00:19:11;;;;;;;14.70;4.47;;;13.90;71.00;;;;;;5067228;28;20048;-48
2023/12/11 00:21:38;;;;;;;13.25;4.30;;;13.90;70.90;;;;;;5061708;28;20115;-48
2023/12/11 00:24:06;;;;;;;17.08;5.22;;;13.80;70.80;;;;;;5058120;28;20112;-48
2023/12/11 00:26:33;;;;;;;12.07;4.97;;;13.80;70.70;;;;;;5062237;28;20061;-48
2023/12/11 00:28:59;;;;;;;14.40;4.43;;;13.80;70.70;;;;;;5068044;28;20051;-48
2023/12/11 00:31:26;;;;;;;11.18;4.30;;;13.80;70.70;;;;;;5069806;28;20040;-50
2023/12/11 00:33:53;;;;;;;14.32;4.57;;;13.80;70.80;;;;;;5049037;28;20084;-49
2023/12/11 00:36:20;;;;;;;13.15;3.53;;;13.70;70.80;;;;;;5063675;28;20068;-49
2023/12/11 00:38:48;;;;;;;16.15;4.57;;;13.70;70.90;;;;;;5068305;28;20510;-48
2023/12/11 00:41:24;;;;;;;15.93;5.13;;;13.70;70.90;;;;;;5048459;28;20536;-48
2023/12/11 00:43:50;;;;;;;15.68;4.80;;;13.70;70.90;;;;;;5054822;28;20048;-47
2023/12/11 00:46:21;;;;;;;15.23;5.30;;;13.70;70.90;;;;;;5059360;28;20495;-50
2023/12/11 00:48:49;;;;;;;16.25;4.85;;;13.70;70.80;;;;;;5069045;28;20044;-48
2023/12/11 00:51:21;;;;;;;16.50;4.03;;;13.70;70.80;;;;;;5069352;28;20494;-48
2023/12/11 00:53:48;;;;;;;;;;;13.70;70.70;;;;;;5049042;28;20048;-48
2023/12/11 00:56:17;;;;;;;12.23;3.60;;;13.80;70.80;;;;;;5061160;28;19928;-49
2023/12/11 00:58:48;;;;;;;14.50;5.00;;;13.70;70.50;;;;;;5068887;28;20147;-48
2023/12/11 01:01:15;;;;;;;17.92;4.22;;;13.70;70.60;;;;;;5062450;28;20440;-48
2023/12/11 01:03:43;;;;;;;11.55;3.70;;;13.70;70.60;;;;;;5049868;28;20060;-48
2023/12/11 01:06:12;;;;;;;13.38;3.88;;;13.70;70.70;;;;;;5051609;28;20098;-48
2023/12/11 01:08:41;;;;;;;14.63;3.97;;;13.70;70.90;;;;;;5051336;28;20519;-48
2023/12/11 01:11:11;;;;;;;13.00;4.20;;;13.70;71.10;;;;;;5048833;28;20311;-49
2023/12/11 01:13:37;;;;;;;15.27;4.53;;;13.70;71.10;;;;;;5064949;28;20079;-48
2023/12/11 01:16:05;;;;;;;13.20;3.92;;;13.70;71.10;;;;;;5069267;28;20040;-47
2023/12/11 01:18:32;;;;;;;13.43;4.80;;;13.70;71.10;;;;;;5070298;28;20053;-48
2023/12/11 01:20:59;;;;;;;14.95;5.03;;;13.70;71.10;;;;;;5056858;28;20124;-47
2023/12/11 01:23:26;;;;;;;16.27;4.60;;;13.70;71.10;;;;;;5060446;28;20052;-47
2023/12/11 01:25:53;;;;;;;18.33;4.80;;;13.70;71.10;;;;;;5056018;28;20076;-49
2023/12/11 01:28:19;;;;;;;13.02;4.80;;;13.80;71.20;;;;;;5070766;28;20402;-48
2023/12/11 01:30:49;;;;;;;13.15;4.45;;;13.80;71.00;;;;;;5070209;28;20072;-47
2023/12/11 01:33:18;;;;;;;11.13;3.70;;;13.80;71.00;;;;;;5045239;28;20128;-47
2023/12/11 01:35:49;;;;;;;15.23;3.33;;;13.80;70.90;;;;;;5062062;28;20080;-48
2023/12/11 01:38:15;;;;;;;16.08;4.68;;;13.80;70.70;;;;;;5070163;28;20480;-49
2023/12/11 01:40:42;;;;;;;11.88;3.58;;;13.80;70.60;;;;;;5070449;28;20072;-47
2023/12/11 01:43:12;;;;;;;13.68;4.07;;;13.80;70.60;;;;;;5055051;28;20046;-48
2023/12/11 01:45:50;;;;;;;14.43;5.07;;;13.80;70.40;;;;;;5055839;28;20480;-47
2023/12/11 01:48:17;;;;;;;14.45;4.43;;;13.70;70.30;;;;;;5070784;28;20123;-47
2023/12/11 01:50:44;;;;;;;18.83;4.55;;;13.70;70.20;;;;;;5070470;28;20447;-47
2023/12/11 01:53:11;;;;;;;10.75;3.90;;;13.70;70.20;;;;;;5053516;28;20496;-49
2023/12/11 01:55:38;;;;;;;18.67;5.40;;;13.70;70.40;;;;;;5054520;28;20041;-49
2023/12/11 01:58:06;;;;;;;13.25;3.97;;;13.60;70.40;;;;;;5069060;28;20101;-49
2023/12/11 02:00:33;;;;;;;19.02;5.18;;;13.70;70.60;;;;;;5056548;28;20053;-48
2023/12/11 02:03:00;;;;;;;15.38;4.80;;;13.70;70.60;;;;;;5044094;28;20041;-47
2023/12/11 02:05:27;;;;;;;17.63;3.92;;;13.60;70.50;;;;;;5050439;28;20029;-47
2023/12/11 02:07:58;;;;;;;13.48;4.57;;;13.70;70.50;;;;;;5050700;28;20036;-49
2023/12/11 02:10:25;;;;;;;19.67;5.38;;;13.70;70.30;;;;;;5050499;28;20052;-48
2023/12/11 02:12:52;;;;;;;17.70;4.32;;;13.80;70.40;;;;;;5041362;28;20072;-50
2023/12/11 02:15:45;;;;;;;17.38;4.82;;;13.70;70.20;;;;;;5042572;28;20041;-48
2023/12/11 02:18:16;;;;;;;13.68;4.10;;;13.80;70.10;;;;;;5050546;28;20044;-48
2023/12/11 02:20:44;;;;;;;17.55;4.90;;;13.80;70.00;;;;;;5047673;28;20037;-51
2023/12/11 02:23:37;;;;;;;17.45;4.28;;;13.80;70.00;;;;;;5047862;28;20044;-48
2023/12/11 02:26:16;;;;;;;17.45;4.25;;;13.80;69.70;;;;;;5050779;28;20037;-49
2023/12/11 02:28:44;;;;;;;14.70;4.38;;;13.80;69.70;;;;;;5050647;28;20563;-48
2023/12/11 02:31:11;;;;;;;14.02;3.75;;;13.80;69.60;;;;;;5043782;28;20550;-49
2023/12/11 02:33:40;;;;;;;16.33;4.30;;;13.70;69.50;;;;;;5049599;28;20060;-48
2023/12/11 02:36:08;;;;;;;18.02;4.65;;;13.70;69.60;;;;;;5051525;28;20044;-47
2023/12/11 02:38:35;;;;;;;13.10;4.20;;;13.70;69.60;;;;;;5050121;28;20052;-46
2023/12/11 02:41:02;;;;;;;13.15;5.13;;;13.70;69.70;;;;;;5048310;28;20041;-48
2023/12/11 02:43:29;;;;;;;22.23;4.82;;;13.70;69.80;;;;;;5050814;28;20462;-49
2023/12/11 02:45:55;;;;;;;11.13;3.92;;;13.70;70.00;;;;;;5050935;28;20086;-47
2023/12/11 02:48:22;;;;;;;18.38;4.10;;;13.70;70.10;;;;;;5049703;28;20032;-48
2023/12/11 02:50:49;;;;;;;10.45;3.35;;;13.70;70.20;;;;;;5049942;28;20698;-46
2023/12/11 02:53:17;;;;;;;15.23;4.75;;;13.70;70.30;;;;;;5048922;28;20043;-48
2023/12/11 02:55:44;;;;;;;14.15;4.07;;;13.70;70.20;;;;;;5049100;28;20531;-47
2023/12/11 02:58:11;;;;;;;16.17;4.10;;;13.70;70.00;;;;;;5052482;28;20393;-47
2023/12/11 03:00:38;;;;;;;18.58;3.67;;;13.70;69.90;;;;;;5050912;28;20127;-47
2023/12/11 03:03:08;;;;;;;15.02;4.85;;;13.70;69.70;;;;;;5051350;28;20036;-50
2023/12/11 03:05:35;;;;;;;14.90;4.60;;;13.70;69.70;;;;;;5048705;28;20041;-48
2023/12/11 03:08:05;;;;;;;14.77;3.60;;;13.70;69.70;;;;;;5052696;28;20045;-48
2023/12/11 03:10:32;;;;;;;15.80;4.45;;;13.70;69.70;;;;;;5045065;28;20045;-47
2023/12/11 03:12:59;;;;;;;16.02;3.90;;;13.70;69.80;;;;;;5049038;28;20048;-48
2023/12/11 03:15:26;;;;;;;16.67;4.05;;;13.80;69.90;;;;;;5047705;28;20049;-48
2023/12/11 03:17:53;;;;;;;18.08;4.70;;;13.70;69.70;;;;;;5051468;28;20510;-49
2023/12/11 03:20:20;;;;;;;14.57;3.40;;;13.80;69.70;;;;;;5052291;28;20422;-48
2023/12/11 03:22:47;;;;;;;15.02;4.00;;;13.70;69.70;;;;;;5049857;28;20040;-51
2023/12/11 03:25:18;;;;;;;15.00;4.85;;;13.70;69.60;;;;;;5048096;28;20056;-47
2023/12/11 03:27:47;;;;;;;13.10;4.30;;;13.80;69.50;;;;;;5047279;28;20430;-48
2023/12/11 03:30:14;;;;;;;16.27;4.35;;;13.80;69.40;;;;;;5034759;28;20048;-47
2023/12/11 03:32:41;;;;;;;14.15;4.97;;;13.80;69.40;;;;;;5041057;28;20047;-48
2023/12/11 03:35:08;;;;;;;8.95;3.42;;;13.80;69.20;;;;;;5051451;28;20033;-48
2023/12/11 03:37:37;;;;;;;12.77;3.83;;;13.80;69.20;;;;;;5050661;28;20626;-49
2023/12/11 03:40:06;;;;;;;12.50;3.92;;;13.80;69.20;;;;;;5050635;28;20033;-50
2023/12/11 03:42:35;;;;;;;10.65;3.50;;;13.80;69.40;;;;;;5051337;28;20065;-48
2023/12/11 03:45:04;;;;;;;14.63;4.53;;;13.90;69.40;;;;;;5053088;28;20037;-49
2023/12/11 03:47:34;;;;;;;16.17;4.50;;;13.80;69.70;;;;;;5046202;28;20038;-51
2023/12/11 03:50:01;;;;;;;17.73;4.47;;;13.80;69.90;;;;;;5045099;28;20579;-50
2023/12/11 03:52:30;;;;;;;13.52;4.97;;;13.80;70.10;;;;;;5055505;28;20091;-49
2023/12/11 03:54:58;;;;;;;22.67;4.30;;;13.70;70.40;;;;;;5037637;28;20099;-50
2023/12/11 03:57:24;;;;;;;13.45;4.18;;;13.70;70.50;;;;;;5055203;28;20045;-49
2023/12/11 03:59:54;;;;;;;9.70;3.38;;;13.60;70.80;;;;;;5056698;28;20072;-47
2023/12/11 04:02:21;;;;;;;14.50;3.90;;;13.60;71.20;;;;;;5054676;28;20052;-47
2023/12/11 04:04:50;;;;;;;17.48;4.93;;;13.50;71.40;;;;;;5050982;28;20049;-47
2023/12/11 04:07:17;;;;;;;16.67;5.40;;;13.40;71.70;;;;;;5057414;28;20486;-48
2023/12/11 04:09:44;;;;;;;15.07;4.22;;;13.40;71.70;;;;;;5056143;28;20064;-47
2023/12/11 04:12:12;;;;;;;14.02;3.60;;;13.30;71.80;;;;;;5052237;28;20120;-48
2023/12/11 04:14:42;;;;;;;14.63;4.20;;;13.30;72.10;;;;;;5050782;28;20033;-48
2023/12/11 04:17:09;;;;;;;19.02;4.53;;;13.20;72.40;;;;;;5057233;28;20064;-48
2023/12/11 04:19:35;;;;;;;10.70;3.58;;;13.20;72.60;;;;;;5056707;28;20093;-48
2023/12/11 04:22:02;;;;;;;13.60;4.45;;;13.20;73.00;;;;;;5052370;28;20068;-47
2023/12/11 04:24:29;;;;;;;11.55;3.13;;;13.10;73.30;;;;;;5034570;28;20040;-49
2023/12/11 04:26:56;;;;;;;14.20;3.55;;;13.10;73.50;;;;;;5053591;28;20049;-47
2023/12/11 04:29:22;;;;;;;15.50;4.00;;;13.10;73.60;;;;;;5057579;28;20040;-49
2023/12/11 04:31:51;;;;;;;14.50;3.95;;;13.00;73.60;;;;;;5051115;28;20041;-52
2023/12/11 04:34:19;;;;;;;13.68;4.38;;;13.00;73.80;;;;;;5056191;28;20392;-52
2023/12/11 04:36:49;;;;;;;16.02;4.50;;;13.00;73.70;;;;;;5056600;28;20045;-47
2023/12/11 04:39:18;;;;;;;10.68;3.00;;;13.00;73.90;;;;;;5056580;28;20055;-51
2023/12/11 04:41:44;;;;;;;17.45;4.07;;;13.00;74.00;;;;;;5053402;28;20041;-47
2023/12/11 04:44:14;;;;;;;11.15;3.58;;;13.00;74.00;;;;;;5057171;28;20522;-48
2023/12/11 04:46:40;;;;;;;12.63;3.17;;;12.90;74.00;;;;;;5056181;28;20037;-50
2023/12/11 04:49:09;;;;;;;13.68;4.07;;;12.90;74.00;;;;;;5055170;28;20040;-48
2023/12/11 04:51:36;;;;;;;16.27;4.18;;;12.90;74.00;;;;;;5048221;28;20068;-48
2023/12/11 04:54:03;;;;;;;10.98;2.97;;;12.90;73.90;;;;;;5053218;28;20403;-49
2023/12/11 04:56:32;;;;;;;11.20;3.05;;;12.90;73.90;;;;;;5053779;28;20696;-49
2023/12/11 04:58:59;;;;;;;8.68;3.65;;;12.80;73.90;;;;;;5056285;28;20577;-48
2023/12/11 05:01:26;;;;;;;15.25;3.90;;;12.80;73.90;;;;;;5056651;28;20044;-48
2023/12/11 05:03:53;;;;;;;14.38;3.42;;;12.80;74.00;;;;;;5053605;28;20053;-51
2023/12/11 05:06:20;;;;;;;9.38;3.60;;;12.80;74.10;;;;;;5058903;28;20045;-51
2023/12/11 05:08:47;;;;;;;18.05;4.18;;;12.80;74.20;;;;;;5055719;28;20114;-52
2023/12/11 05:11:14;;;;;;;12.07;4.25;;;12.80;74.40;;;;;;5034486;28;20072;-48
2023/12/11 05:13:43;;;;;;;13.68;4.03;;;12.80;74.20;;;;;;5055339;28;20041;-47
2023/12/11 05:16:10;;;;;;;11.07;4.18;;;12.70;74.00;;;;;;5058589;28;20037;-50
2023/12/11 05:18:39;;;;;;;11.48;3.25;;;12.70;73.90;;;;;;5054034;28;20438;-48
2023/12/11 05:21:07;;;;;;;16.45;4.07;;;12.70;73.90;;;;;;5053481;28;20094;-48
2023/12/11 05:23:34;;;;;;;14.57;3.33;;;12.70;73.90;;;;;;5052300;28;20073;-50
2023/12/11 05:26:01;;;;;;;12.02;3.50;;;12.70;73.90;;;;;;5048915;28;20044;-48
2023/12/11 05:28:28;;;;;;;10.95;3.67;;;12.60;73.80;;;;;;5050886;28;20045;-49
2023/12/11 05:30:55;;;;;;;10.38;3.13;;;12.60;73.80;;;;;;5055654;28;20507;-49
2023/12/11 05:33:23;;;;;;;7.32;3.05;;;12.60;73.90;;;;;;5053632;28;20491;-48
2023/12/11 05:35:50;;;;;;;13.23;2.85;;;12.60;73.90;;;;;;5052875;28;20041;-49
2023/12/11 05:38:16;;;;;;;9.50;3.28;;;12.60;74.00;;;;;;5054852;28;20101;-47
2023/12/11 05:40:46;;;;;;;12.45;2.90;;;12.60;74.00;;;;;;5054751;28;20041;-51
2023/12/11 05:43:13;;;;;;;6.15;3.05;;;12.60;73.90;;;;;;5056192;28;20049;-50
2023/12/11 05:45:40;;;;;;;9.98;3.42;;;12.60;73.90;;;;;;5051997;28;20467;-47
2023/12/11 05:48:07;;;;;;;5.63;2.53;;;12.60;74.00;;;;;;5041211;28;20034;-49
2023/12/11 05:50:35;;;;;;;9.75;3.85;;;12.60;74.10;;;;;;5046315;28;20045;-48
2023/12/11 05:53:06;;;;;;;9.00;3.03;;;12.60;74.20;;;;;;5039623;28;20052;-50
2023/12/11 05:55:35;;;;;;;15.18;3.20;;;12.70;74.40;;;;;;5050771;28;20049;-49
2023/12/11 05:58:01;;;;;;;5.82;2.92;;;12.70;74.50;;;;;;5054393;28;20064;-48
2023/12/11 06:00:31;;;;;;;10.48;3.60;;;12.70;74.40;;;;;;5058007;28;20045;-47
2023/12/11 06:02:59;;;;;;;13.23;4.30;;;12.70;74.20;;;;;;5052093;28;20050;-47
2023/12/11 06:05:26;;;;;;;15.88;4.32;;;12.70;74.10;;;;;;5057825;28;20044;-48
2023/12/11 06:07:55;;;;;;;12.32;3.25;;;12.70;74.00;;;;;;5056763;28;20448;-49
2023/12/11 06:10:21;;;;;;;13.65;4.35;;;12.70;74.00;;;;;;5057620;28;20044;-48
2023/12/11 06:12:48;;;;;;;13.63;3.83;;;12.70;74.00;;;;;;5050303;28;20037;-51
2023/12/11 06:15:15;;;;;;;14.77;4.13;;;12.70;74.00;;;;;;5060515;28;20123;-51
2023/12/11 06:17:42;;;;;;;14.63;4.45;;;12.70;74.60;;;;;;5057656;28;20045;-51
2023/12/11 06:20:11;;;;;;;7.53;3.08;;;12.70;73.90;;;;;;5051728;28;20037;-47
2023/12/11 06:22:40;;;;;;;10.45;3.45;;;12.70;73.90;;;;;;5056266;28;20072;-51
2023/12/11 06:25:07;;;;;;;21.30;3.72;;;12.70;73.90;;;;;;5053941;28;20060;-50
2023/12/11 06:27:34;;;;;;;13.38;3.75;;;12.80;73.80;;;;;;5058135;28;20037;-48
2023/12/11 06:30:01;;;;;;;11.27;3.50;;;12.90;73.70;;;;;;5058846;28;20065;-52
2023/12/11 06:32:27;;;;;;;9.57;3.15;;;12.90;73.60;;;;;;5055229;28;20040;-49
2023/12/11 06:34:57;;;;;;;9.20;2.42;;;12.90;73.50;;;;;;5058087;28;20488;-47
2023/12/11 06:37:24;;;;;;;8.05;3.35;;;13.00;74.10;;;;;;5060343;28;20057;-47
2023/12/11 06:39:53;;;;;;;11.13;2.88;;;13.00;73.40;;;;;;5058203;28;20033;-50
2023/12/11 06:42:25;;;;;;;10.85;3.53;;;13.00;73.10;;;;;;5050670;28;20048;-47
2023/12/11 06:44:53;;;;;;;13.57;3.50;;;13.00;73.00;;;;;;5057193;28;20044;-48
2023/12/11 06:47:22;;;;;;;12.27;2.72;;;13.10;72.80;;;;;;5052995;28;20059;-49
2023/12/11 06:49:49;;;;;;;8.20;2.97;;;13.10;72.60;;;;;;5049301;28;20033;-50
2023/12/11 06:52:16;;;;;;;11.10;3.50;;;13.10;72.50;;;;;;5053961;28;20054;-47
2023/12/11 06:54:43;;;;;;;10.52;4.18;;;13.10;72.30;;;;;;5050254;28;20041;-48
2023/12/11 06:57:13;;;;;;;7.18;2.50;;;13.10;72.20;;;;;;5059386;28;20610;-52
2023/12/11 06:59:41;;;;;;;7.25;2.85;;;13.20;72.10;;;;;;5058777;28;20044;-53
2023/12/11 07:02:08;;;;;;;10.95;2.60;;;13.20;72.00;;;;;;5033844;28;20078;-50
2023/12/11 07:04:35;;;;;;;9.18;3.42;;;13.20;71.80;;;;;;5049007;28;20072;-48
2023/12/11 07:07:06;;;;;;;10.13;2.83;;;13.30;71.80;;;;;;5049748;28;20487;-50
2023/12/11 07:09:32;;;;;;;13.15;3.95;;;13.30;71.50;;;;;;5049944;28;20040;-48
2023/12/11 07:11:59;;;;;;;12.48;3.03;;;13.30;71.50;;;;;;5050235;28;20041;-49
2023/12/11 07:14:28;;;;;;;10.98;3.53;;;13.30;71.50;;;;;;5054268;28;20166;-50
2023/12/11 07:16:55;;;;;;;13.15;4.05;;;13.40;71.40;;;;;;5058166;28;20048;-50
2023/12/11 07:19:22;;;;;;;13.27;3.63;;;13.40;71.30;;;;;;5056511;28;20071;-47
2023/12/11 07:21:50;;;;;;;11.60;3.05;;;13.40;71.20;;;;;;5047894;28;20048;-49
2023/12/11 07:24:19;;;;;;;12.18;4.10;;;13.40;70.90;;;;;;5037627;28;20051;-51
2023/12/11 07:26:46;;;;;;;14.35;4.15;;;13.40;71.00;;;;;;5057425;28;20137;-51
2023/12/11 07:29:15;;;;;;;17.60;3.38;;;13.40;70.90;;;;;;5061886;28;20738;-50
2023/12/11 07:31:44;;;;;;;10.68;4.13;;;13.40;70.90;;;;;;5059757;28;20449;-51
2023/12/11 07:34:11;;;;;;;14.02;4.13;;;13.40;70.80;;;;;;5047472;28;20075;-50
2023/12/11 07:36:38;;;;;;;11.13;3.35;;;13.40;70.80;;;;;;5058440;28;20048;-51
2023/12/11 07:39:05;;;;;;;12.73;3.90;;;13.40;70.70;;;;;;5059844;28;20438;-51
2023/12/11 07:41:32;;;;;;;13.35;4.28;;;13.40;70.50;;;;;;5055359;28;20091;-53
2023/12/11 07:44:01;;;;;;;10.00;3.40;;;13.50;70.70;;;;;;5029524;28;21009;-55
2023/12/11 07:46:30;;;;;;;7.85;3.38;;;13.50;70.60;;;;;;5050812;28;20064;-54
2023/12/11 07:48:56;;;;;;;12.20;3.22;;;13.50;70.40;;;;;;5030140;28;20041;-52
2023/12/11 07:51:26;;;;;;;9.95;3.55;;;13.50;70.50;;;;;;5053826;28;20045;-54
2023/12/11 07:53:58;;;;;;;12.73;4.13;;;13.50;70.40;;;;;;5047984;28;20454;-55
2023/12/11 07:56:29;;;;;;;14.52;4.38;;;13.50;70.50;;;;;;5052693;28;20045;-52
2023/12/11 07:58:59;;;;;;;8.23;2.55;;;13.50;70.60;;;;;;5044814;28;20063;-55
2023/12/11 08:01:36;;;;;;;11.30;4.10;;;13.50;71.00;;;;;;5058916;28;20044;-56
2023/12/11 08:04:06;;;;;;;11.52;3.45;;;13.50;71.00;;;;;;5043351;28;20475;-55
2023/12/11 08:06:33;;;;;;;14.85;3.33;;;13.40;71.10;;;;;;5046654;28;20428;-52
2023/12/11 08:09:00;;;;;;;14.20;3.42;;;13.40;71.20;;;;;;5041085;28;20048;-56
2023/12/11 08:11:29;;;;;;;10.07;3.55;;;13.30;71.30;;;;;;5046770;28;20052;-54
2023/12/11 08:13:57;;;;;;;15.00;3.15;;;13.30;71.70;;;;;;5033763;28;20499;-53
2023/12/11 08:16:24;;;;;;;12.15;3.88;;;13.20;72.10;;;;;;5047827;28;20048;-54
2023/12/11 08:18:50;;;;;;;11.70;3.67;;;13.20;72.30;;;;;;5050268;28;20091;-54
2023/12/11 08:21:17;;;;;;;13.10;3.70;;;13.10;72.50;;;;;;5045368;28;20053;-54
2023/12/11 08:23:47;;;;;;;16.42;3.45;;;13.10;72.70;;;;;;5045848;28;20034;-53
2023/12/11 08:26:18;;;;;;;8.63;3.45;;;13.00;72.70;;;;;;5053579;28;20120;-54
2023/12/11 08:28:46;;;;;;;12.20;3.10;;;13.00;73.20;;;;;;5052949;28;20095;-55
2023/12/11 08:31:13;;;;;;;8.90;3.15;;;12.90;73.70;;;;;;5054717;28;20528;-53
2023/12/11 08:33:40;;;;;;;14.52;4.18;;;12.90;73.20;;;;;;5047491;28;20033;-55
2023/12/11 08:36:07;;;;;;;10.68;3.00;;;12.90;73.50;;;;;;5061022;28;20056;-54
2023/12/11 08:38:34;;;;;;;9.65;2.95;;;12.90;73.70;;;;;;5059151;28;20056;-54
2023/12/11 08:41:01;;;;;;;10.95;4.03;;;12.80;73.90;;;;;;5057765;28;20044;-52
2023/12/11 08:43:28;;;;;;;18.02;4.97;;;12.80;73.90;;;;;;5054997;28;20065;-55
2023/12/11 08:45:54;;;;;;;11.15;2.83;;;12.90;74.20;;;;;;5055451;28;20045;-52
2023/12/11 08:48:21;;;;;;;11.20;3.17;;;12.80;74.20;;;;;;5057444;28;20125;-52
2023/12/11 08:50:52;;;;;;;13.50;3.58;;;12.70;74.20;;;;;;5051146;28;20064;-55
2023/12/11 08:53:23;;;;;;;13.60;3.63;;;12.70;74.30;;;;;;5052080;28;20048;-51
2023/12/11 08:55:52;;;;;;;15.90;3.88;;;12.70;74.40;;;;;;5033019;28;20459;-55
2023/12/11 08:58:19;;;;;;;11.65;3.53;;;12.70;74.50;;;;;;5047615;28;20056;-52
2023/12/11 09:00:47;;;;;;;12.25;3.22;;;12.70;74.70;;;;;;5054276;28;20068;-52
2023/12/11 09:03:14;;;;;;;12.82;3.47;;;12.70;74.80;;;;;;5050882;28;20099;-52
2023/12/11 09:05:41;;;;;;;13.88;3.70;;;12.70;74.90;;;;;;5047700;28;20407;-51
2023/12/11 09:08:09;;;;;;;12.82;3.75;;;12.70;75.00;;;;;;5051301;28;20651;-53
2023/12/11 09:10:36;;;;;;;8.30;3.90;;;12.70;75.00;;;;;;5051362;28;20083;-53
2023/12/11 09:13:03;;;;;;;12.32;4.55;;;12.70;75.10;;;;;;5055921;28;20427;-53
2023/12/11 09:15:30;;;;;;;13.38;4.13;;;12.70;75.10;;;;;;5055625;28;20037;-55
2023/12/11 09:17:56;;;;;;;12.98;4.22;;;12.70;75.00;;;;;;5055483;28;20045;-55
2023/12/11 09:20:23;;;;;;;15.60;4.22;;;12.70;75.10;;;;;;5034069;28;20048;-57
2023/12/11 09:22:50;;;;;;;12.32;3.88;;;12.70;75.00;;;;;;5063390;28;20048;-53
2023/12/11 09:25:17;;;;;;;12.75;3.58;;;12.70;74.90;;;;;;5050734;28;20048;-57
2023/12/11 09:27:44;;;;;;;14.52;3.70;;;12.80;75.30;;;;;;5051528;28;20067;-55
2023/12/11 09:30:14;;;;;;;18.63;3.83;;;12.80;75.30;;;;;;5060062;28;20098;-53
2023/12/11 09:32:41;;;;;;;9.60;2.75;;;12.80;75.20;;;;;;5057598;28;20446;-55
2023/12/11 09:35:10;;;;;;;12.02;3.45;;;12.80;75.20;;;;;;5060415;28;20045;-55
2023/12/11 09:37:42;;;;;;;17.50;4.50;;;12.80;75.30;;;;;;5056261;28;20051;-57
2023/12/11 09:40:10;;;;;;;12.77;4.18;;;12.80;75.20;;;;;;5064746;28;20041;-55
2023/12/11 09:42:43;;;;;;;12.43;3.60;;;12.90;75.20;;;;;;5058278;28;20055;-55
2023/12/11 09:45:16;;;;;;;17.48;3.60;;;12.90;75.10;;;;;;5064255;28;20044;-54
2023/12/11 09:47:47;;;;;;;11.27;3.83;;;12.80;75.00;;;;;;5066078;28;20040;-54
2023/12/11 09:50:19;;;;;;;15.48;4.07;;;12.90;75.00;;;;;;5052321;28;20032;-57
2023/12/11 09:52:46;;;;;;;11.50;3.58;;;12.90;75.00;;;;;;5059658;28;20045;-49
2023/12/11 09:55:13;;;;;;;12.45;3.80;;;12.90;75.00;;;;;;5055553;28;20041;-50
2023/12/11 09:57:41;;;;;;;13.77;3.17;;;12.90;75.10;;;;;;5062996;28;20061;-53
2023/12/11 10:00:11;;;;;;;10.48;3.25;;;12.90;75.10;;;;;;5064472;28;20059;-52
2023/12/11 10:02:41;;;;;;;11.82;2.78;;;12.90;75.20;;;;;;5043789;28;20098;-49
2023/12/11 10:05:10;;;;;;;10.38;3.65;;;12.90;74.90;;;;;;5048122;28;20037;-51
2023/12/11 10:07:40;;;;;;;11.30;3.50;;;12.90;74.90;;;;;;5050965;28;20075;-51
2023/12/11 10:10:42;;;;;;;9.82;4.05;;;13.00;74.90;;;;;;5047717;28;20090;-48
2023/12/11 10:13:10;;;;;;;10.52;3.55;;;13.00;75.10;;;;;;4977209;28;20406;-51
2023/12/11 10:15:37;;;;;;;13.30;3.20;;;13.00;74.80;;;;;;5056181;28;20136;-52
2023/12/11 10:18:13;;;;;;;10.65;3.33;;;13.00;74.60;;;;;;5063875;28;20052;-51
2023/12/11 10:20:42;;;;;;;10.80;3.00;;;13.10;74.30;;;;;;5053330;28;20410;-54
2023/12/11 10:23:21;;;;;;;10.80;2.67;;;13.10;74.20;;;;;;5033777;28;20060;-56
2023/12/11 10:25:50;;;;;;;7.90;2.70;;;13.10;74.10;;;;;;5046637;28;20049;-53
2023/12/11 10:28:22;;;;;;;11.70;3.17;;;13.10;74.00;;;;;;5050573;28;20487;-54
2023/12/11 10:31:01;;;;;;;9.40;2.65;;;13.20;73.90;;;;;;5042581;28;20996;-54
2023/12/11 10:33:33;;;;;;;8.95;2.78;;;13.20;73.90;;;;;;5045934;28;20037;-56
2023/12/11 10:36:12;;;;;;;11.70;2.63;;;13.20;73.90;;;;;;5156629;23;20047;-55
2023/12/11 10:38:39;;;;;;;13.93;2.60;;;13.30;73.80;;;;;;5088035;28;20040;-55
2023/12/11 10:41:24;;;;;;;8.88;2.95;;;13.30;73.70;;;;;;5088164;28;20044;-54
2023/12/11 10:43:50;;;;;;;10.55;3.20;;;13.30;73.60;;;;;;5087749;28;20046;-55
2023/12/11 10:46:38;;;;;;;11.75;3.58;;;13.30;73.40;;;;;;5067427;28;20045;-54
2023/12/11 10:49:04;;;;;;;11.25;2.38;;;13.40;73.40;;;;;;5065622;28;20045;-55
2023/12/11 10:51:34;;;;;;;11.70;2.60;;;13.40;73.40;;;;;;5070884;28;20040;-54
2023/12/11 10:54:01;;;;;;;6.85;2.50;;;13.40;73.30;;;;;;5064080;28;20055;-56
2023/12/11 10:56:28;;;;;;;6.97;2.45;;;13.40;73.20;;;;;;5070011;28;20040;-55
2023/12/11 10:58:57;;;;;;;9.63;2.75;;;13.40;73.30;;;;;;5070097;28;20082;-55
2023/12/11 11:01:24;;;;;;;6.18;2.65;;;13.50;73.30;;;;;;5070725;28;20053;-54
2023/12/11 11:03:51;;;;;;;7.70;2.45;;;13.40;73.40;;;;;;5065382;28;20102;-53
2023/12/11 11:06:21;;;;;;;9.05;3.13;;;13.50;73.30;;;;;;5069458;28;20498;-54
2023/12/11 11:09:00;;;;;;;14.52;3.10;;;13.50;73.30;;;;;;5067119;28;20061;-52
2023/12/11 11:11:33;;;;;;;8.30;2.90;;;13.50;73.30;;;;;;5062717;28;20040;-55
2023/12/11 11:14:17;;;;;;;7.95;2.72;;;13.50;73.30;;;;;;5068691;28;20045;-54
2023/12/11 11:16:53;;;;;;;8.80;2.50;;;13.50;73.10;;;;;;5065084;28;20526;-54
2023/12/11 11:19:20;;;;;;;8.25;2.70;;;13.50;73.20;;;;;;5056691;28;20052;-54
2023/12/11 11:22:00;;;;;;;7.95;2.40;;;13.50;73.20;;;;;;5070114;28;20119;-53
2023/12/11 11:24:27;;;;;;;9.30;2.67;;;13.50;73.30;;;;;;5059100;28;20052;-53
2023/12/11 11:26:54;;;;;;;7.85;2.15;;;13.50;73.40;;;;;;5071360;28;20051;-55
2023/12/11 11:29:43;;;;;;;5.25;2.10;;;13.50;73.30;;;;;;5063185;28;20055;-56
2023/12/11 11:32:11;;;;;;;7.72;2.22;;;13.50;73.30;;;;;;5064288;28;20048;-54
2023/12/11 11:34:40;;;;;;;9.00;3.63;;;13.50;73.30;;;;;;5066796;28;20458;-55
2023/12/11 11:37:27;;;;;;;7.72;3.40;;;13.50;73.10;;;;;;5070295;28;20526;-56
2023/12/11 11:40:05;;;;;;;5.28;2.50;;;13.50;73.10;;;;;;5067321;28;20110;-55
2023/12/11 11:42:36;;;;;;;7.80;2.58;;;13.50;73.20;;;;;;5067175;28;20107;-55
2023/12/11 11:45:07;;;;;;;8.43;2.85;;;13.60;73.20;;;;;;5066497;28;20055;-53
2023/12/11 11:47:34;;;;;;;5.47;3.15;;;13.60;73.10;;;;;;5064473;28;20086;-53
2023/12/11 11:50:07;;;;;;;6.50;2.65;;;13.60;73.10;;;;;;5067467;28;20041;-55
2023/12/11 11:52:39;;;;;;;7.30;2.30;;;13.60;72.90;;;;;;5067724;28;20040;-55
2023/12/11 11:55:21;;;;;;;10.10;2.65;;;13.60;72.80;;;;;;5059378;28;20547;-55
2023/12/11 11:57:48;;;;;;;8.10;2.30;;;13.60;72.90;;;;;;5065649;28;20037;-55
2023/12/11 12:00:22;;;;;;;5.65;1.98;;;13.60;72.70;;;;;;5060207;28;20036;-55
2023/12/11 12:03:00;;;;;;;9.93;2.40;;;13.70;72.50;;;;;;5063953;28;20518;-55
2023/12/11 12:05:27;;;;;;;7.93;2.90;;;13.70;72.40;;;;;;5061383;28;20048;-55
2023/12/11 12:07:54;;;;;;;5.25;2.20;;;13.70;72.20;;;;;;5069472;28;20162;-54
2023/12/11 12:10:21;;;;;;;9.68;3.33;;;13.70;72.00;;;;;;5067041;28;20040;-55
2023/12/11 12:12:55;;;;;;;7.00;2.53;;;13.70;72.10;;;;;;5071138;28;20107;-55
2023/12/11 12:15:22;;;;;;;6.88;2.38;;;13.60;72.20;;;;;;5077963;28;20048;-52
2023/12/11 12:17:50;;;;;;;5.72;2.40;;;13.70;72.40;;;;;;5071786;28;20184;-52
2023/12/11 12:20:18;;;;;;;6.97;2.80;;;13.70;72.50;;;;;;5072226;28;20036;-55
2023/12/11 12:23:05;;;;;;;8.25;2.80;;;13.70;72.30;;;;;;5072548;28;20037;-55
2023/12/11 12:25:33;;;;;;;5.95;2.67;;;13.80;72.00;;;;;;5071022;28;20127;-55
2023/12/11 12:28:11;;;;;;;7.75;2.30;;;13.80;71.80;;;;;;5074135;28;20040;-55
2023/12/11 12:30:38;;;;;;;7.30;2.75;;;13.80;71.60;;;;;;5084803;28;20082;-54
2023/12/11 12:33:09;;;;;;;7.15;2.03;;;13.70;71.80;;;;;;5071289;28;20040;-54
2023/12/11 12:35:37;;;;;;;6.75;1.90;;;13.80;72.10;;;;;;5066443;28;20038;-55
2023/12/11 12:38:05;;;;;;;4.38;2.17;;;13.80;72.10;;;;;;5081208;28;20432;-55
2023/12/11 12:40:35;;;;;;;5.47;1.83;;;13.80;71.90;;;;;;5081821;28;20110;-55
2023/12/11 12:43:12;;;;;;;8.90;2.72;;;13.90;71.50;;;;;;5068582;28;20517;-55
2023/12/11 12:45:41;;;;;;;7.35;1.83;;;13.90;71.20;;;;;;5088260;28;20044;-55
2023/12/11 12:48:08;;;;;;;7.82;2.45;;;13.90;71.50;;;;;;5080235;28;20044;-55
2023/12/11 12:50:36;;;;;;;5.07;1.65;;;14.00;71.70;;;;;;5072265;28;20052;-52